createdAt,value
2023-05-21T00:00:01.715Z,0
2023-05-21T00:00:31.826Z,0
2023-05-21T00:01:03.783Z,0
2023-05-21T00:01:34.577Z,0
2023-05-21T00:01:52.124Z,0
2023-05-21T00:02:24.661Z,0
2023-05-21T00:02:41.936Z,0
2023-05-21T00:03:12.013Z,0
2023-05-21T00:03:34.879Z,0
2023-05-21T00:04:00.434Z,0
2023-05-21T00:04:32.670Z,0
2023-05-21T00:05:04.231Z,0
2023-05-21T00:05:35.350Z,0
2023-05-21T00:05:51.970Z,0
2023-05-21T00:06:23.822Z,0
2023-05-21T00:06:41.592Z,0
2023-05-21T00:07:12.936Z,0
2023-05-21T00:07:34.488Z,0
2023-05-21T00:07:59.786Z,0
2023-05-21T00:08:31.939Z,0
2023-05-21T00:09:03.727Z,0
2023-05-21T00:09:34.785Z,0
2023-05-21T00:10:07.897Z,0
2023-05-21T00:10:34.573Z,0
2023-05-21T00:10:56.038Z,0
2023-05-21T00:11:28.772Z,0
2023-05-21T00:11:59.799Z,0
2023-05-21T00:12:31.903Z,0
2023-05-21T00:13:03.769Z,0
2023-05-21T00:13:34.380Z,0
2023-05-21T00:13:52.593Z,0
2023-05-21T00:14:23.900Z,0
2023-05-21T00:14:40.954Z,0
2023-05-21T00:15:28.879Z,0
2023-05-21T00:15:59.949Z,0
2023-05-21T00:16:31.872Z,0
2023-05-21T00:17:03.763Z,0
2023-05-21T00:17:34.351Z,0
2023-05-21T00:17:52.771Z,0
2023-05-21T00:18:23.831Z,0
2023-05-21T00:18:40.947Z,0
2023-05-21T00:19:11.954Z,0
2023-05-21T00:19:34.358Z,0
2023-05-21T00:20:01.009Z,0
2023-05-21T00:20:32.033Z,0
2023-05-21T00:21:03.732Z,0
2023-05-21T00:21:34.367Z,0
2023-05-21T00:21:52.021Z,0
2023-05-21T00:22:24.444Z,0
2023-05-21T00:22:41.765Z,0
2023-05-21T00:23:11.848Z,0
2023-05-21T00:23:34.317Z,0
2023-05-21T00:24:00.696Z,0
2023-05-21T00:24:31.925Z,0
2023-05-21T00:25:04.846Z,0
2023-05-21T00:25:34.612Z,0
2023-05-21T00:25:52.102Z,0
2023-05-21T00:26:24.408Z,0
2023-05-21T00:26:41.878Z,0
2023-05-21T00:27:11.861Z,0
2023-05-21T00:27:34.426Z,0
2023-05-21T00:28:00.725Z,0
2023-05-21T00:28:31.894Z,0
2023-05-21T00:29:04.533Z,0
2023-05-21T00:29:34.975Z,0
2023-05-21T00:30:07.517Z,0
2023-05-21T00:30:24.495Z,0
2023-05-21T00:30:42.297Z,0
2023-05-21T00:31:12.039Z,0
2023-05-21T00:31:34.441Z,0
2023-05-21T00:32:00.040Z,0
2023-05-21T00:32:32.591Z,0
2023-05-21T00:33:05.099Z,0
2023-05-21T00:33:34.418Z,0
2023-05-21T00:33:52.719Z,0
2023-05-21T00:34:23.900Z,0
2023-05-21T00:34:41.015Z,0
2023-05-21T00:35:12.765Z,0
2023-05-21T00:35:34.573Z,0
2023-05-21T00:35:59.996Z,0
2023-05-21T00:36:31.938Z,0
2023-05-21T00:37:03.789Z,0
2023-05-21T00:37:34.796Z,0
2023-05-21T00:38:07.746Z,0
2023-05-21T00:38:34.371Z,0
2023-05-21T00:38:55.837Z,0
2023-05-21T00:39:28.619Z,0
2023-05-21T00:39:59.858Z,0
2023-05-21T00:40:32.070Z,0
2023-05-21T00:41:03.690Z,0
2023-05-21T00:41:34.429Z,0
2023-05-21T00:41:52.530Z,0
2023-05-21T00:42:23.789Z,0
2023-05-21T00:42:40.878Z,0
2023-05-21T00:43:12.619Z,0
2023-05-21T00:43:34.389Z,0
2023-05-21T00:43:59.895Z,0
2023-05-21T00:44:32.427Z,0
2023-05-21T00:45:04.045Z,0
2023-05-21T00:45:35.043Z,0
2023-05-21T00:45:52.892Z,0
2023-05-21T00:46:24.126Z,0
2023-05-21T00:46:40.939Z,0
2023-05-21T00:47:12.477Z,0
2023-05-21T00:47:34.393Z,0
2023-05-21T00:47:59.873Z,0
2023-05-21T00:48:32.664Z,0
2023-05-21T00:49:03.734Z,0
2023-05-21T00:49:34.380Z,0
2023-05-21T00:49:52.868Z,0
2023-05-21T00:50:23.933Z,0
2023-05-21T00:50:40.883Z,0
2023-05-21T00:51:12.596Z,0
2023-05-21T00:51:34.369Z,0
2023-05-21T00:51:59.973Z,0
2023-05-21T00:52:32.662Z,0
2023-05-21T00:53:03.710Z,0
2023-05-21T00:53:34.447Z,0
2023-05-21T00:53:52.800Z,0
2023-05-21T00:54:23.904Z,0
2023-05-21T00:54:40.965Z,0
2023-05-21T00:55:13.129Z,0
2023-05-21T00:55:34.508Z,0
2023-05-21T00:56:00.012Z,0
2023-05-21T00:56:32.521Z,0
2023-05-21T00:57:03.753Z,0
2023-05-21T00:57:34.364Z,0
2023-05-21T00:57:52.871Z,0
2023-05-21T00:58:23.852Z,0
2023-05-21T00:58:40.996Z,0
2023-05-21T00:59:12.584Z,0
2023-05-21T00:59:34.392Z,0
2023-05-21T00:59:59.846Z,0
2023-05-21T01:00:33.007Z,0
2023-05-21T01:01:03.885Z,0
2023-05-21T01:01:35.191Z,0
2023-05-21T01:01:52.147Z,0
2023-05-21T01:02:23.812Z,0
2023-05-21T01:02:41.229Z,0
2023-05-21T01:03:12.780Z,0
2023-05-21T01:03:34.442Z,0
2023-05-21T01:03:59.910Z,0
2023-05-21T01:04:32.493Z,0
2023-05-21T01:05:03.959Z,0
2023-05-21T01:05:34.511Z,0
2023-05-21T01:05:52.664Z,0
2023-05-21T01:06:23.831Z,0
2023-05-21T01:06:41.022Z,0
2023-05-21T01:07:12.558Z,0
2023-05-21T01:07:34.497Z,0
2023-05-21T01:07:59.882Z,0
2023-05-21T01:08:32.543Z,0
2023-05-21T01:09:05.057Z,0
2023-05-21T01:09:34.402Z,0
2023-05-21T01:09:52.760Z,0
2023-05-21T01:10:23.889Z,0
2023-05-21T01:10:40.896Z,0
2023-05-21T01:11:12.869Z,0
2023-05-21T01:11:34.381Z,0
2023-05-21T01:11:59.837Z,0
2023-05-21T01:12:32.463Z,0
2023-05-21T01:13:03.685Z,0
2023-05-21T01:13:35.156Z,0
2023-05-21T01:13:51.804Z,0
2023-05-21T01:14:23.757Z,0
2023-05-21T01:14:40.876Z,0
2023-05-21T01:15:12.773Z,0
2023-05-21T01:15:34.546Z,0
2023-05-21T01:16:00.017Z,0
2023-05-21T01:16:32.544Z,0
2023-05-21T01:17:03.747Z,0
2023-05-21T01:17:34.551Z,0
2023-05-21T01:17:52.711Z,0
2023-05-21T01:18:23.815Z,0
2023-05-21T01:18:40.956Z,0
2023-05-21T01:19:12.722Z,0
2023-05-21T01:19:34.429Z,0
2023-05-21T01:19:59.921Z,0
2023-05-21T01:20:32.742Z,0
2023-05-21T01:21:03.667Z,0
2023-05-21T01:21:34.755Z,0
2023-05-21T01:22:08.595Z,0
2023-05-21T01:22:34.411Z,0
2023-05-21T01:22:55.740Z,0
2023-05-21T01:23:28.657Z,0
2023-05-21T01:23:59.797Z,0
2023-05-21T01:24:31.828Z,0
2023-05-21T01:25:03.851Z,0
2023-05-21T01:25:34.632Z,0
2023-05-21T01:25:52.975Z,0
2023-05-21T01:26:23.877Z,0
2023-05-21T01:26:40.983Z,0
2023-05-21T01:27:12.403Z,0
2023-05-21T01:27:34.353Z,0
2023-05-21T01:28:00.113Z,0
2023-05-21T01:28:32.588Z,0
2023-05-21T01:29:03.725Z,0
2023-05-21T01:29:34.955Z,0
2023-05-21T01:29:52.432Z,0
2023-05-21T01:30:23.995Z,0
2023-05-21T01:30:40.878Z,0
2023-05-21T01:31:12.633Z,0
2023-05-21T01:31:34.950Z,0
2023-05-21T01:32:00.179Z,0
2023-05-21T01:32:32.735Z,0
2023-05-21T01:33:04.025Z,0
2023-05-21T01:33:35.194Z,0
2023-05-21T01:33:51.761Z,0
2023-05-21T01:34:23.775Z,0
2023-05-21T01:34:41.602Z,0
2023-05-21T01:35:12.765Z,0
2023-05-21T01:35:34.526Z,0
2023-05-21T01:36:00.130Z,0
2023-05-21T01:36:32.541Z,0
2023-05-21T01:37:03.775Z,0
2023-05-21T01:37:34.401Z,0
2023-05-21T01:37:52.790Z,0
2023-05-21T01:38:24.071Z,0
2023-05-21T01:38:40.909Z,0
2023-05-21T01:39:13.314Z,0
2023-05-21T01:39:34.356Z,0
2023-05-21T01:39:59.744Z,0
2023-05-21T01:40:32.742Z,0
2023-05-21T01:41:03.678Z,0
2023-05-21T01:41:35.118Z,0
2023-05-21T01:41:51.578Z,0
2023-05-21T01:42:24.168Z,0
2023-05-21T01:42:40.817Z,0
2023-05-21T01:43:12.560Z,0
2023-05-21T01:43:34.378Z,0
2023-05-21T01:43:59.800Z,0
2023-05-21T01:44:32.478Z,0
2023-05-21T01:45:04.158Z,0
2023-05-21T01:45:34.633Z,0
2023-05-21T01:45:53.162Z,0
2023-05-21T01:46:23.807Z,0
2023-05-21T01:46:41.090Z,0
2023-05-21T01:47:12.986Z,0
2023-05-21T01:47:34.492Z,0
2023-05-21T01:47:59.836Z,0
2023-05-21T01:48:33.209Z,0
2023-05-21T01:49:03.738Z,0
2023-05-21T01:49:34.418Z,0
2023-05-21T01:49:52.694Z,0
2023-05-21T01:50:24.038Z,0
2023-05-21T01:50:41.233Z,0
2023-05-21T01:51:12.961Z,0
2023-05-21T01:51:34.436Z,0
2023-05-21T01:51:59.883Z,0
2023-05-21T01:52:32.768Z,0
2023-05-21T01:53:03.667Z,0
2023-05-21T01:53:34.354Z,0
2023-05-21T01:53:52.676Z,0
2023-05-21T01:54:23.919Z,0
2023-05-21T01:54:40.836Z,0
2023-05-21T01:55:12.881Z,0
2023-05-21T01:55:34.680Z,0
2023-05-21T01:56:00.197Z,0
2023-05-21T01:56:32.676Z,0
2023-05-21T01:57:03.859Z,0
2023-05-21T01:57:34.403Z,0
2023-05-21T01:57:52.746Z,0
2023-05-21T01:58:23.798Z,0
2023-05-21T01:58:40.842Z,0
2023-05-21T01:59:12.655Z,0
2023-05-21T01:59:34.410Z,0
2023-05-21T01:59:59.784Z,0
2023-05-21T02:00:32.833Z,0
2023-05-21T02:01:03.715Z,0
2023-05-21T02:01:34.430Z,0
2023-05-21T02:01:52.882Z,0
2023-05-21T02:02:23.792Z,0
2023-05-21T02:02:40.928Z,0
2023-05-21T02:03:12.011Z,0
2023-05-21T02:03:34.802Z,0
2023-05-21T02:04:00.857Z,0
2023-05-21T02:04:31.782Z,0
2023-05-21T02:05:04.105Z,0
2023-05-21T02:05:34.657Z,0
2023-05-21T02:05:51.878Z,0
2023-05-21T02:06:24.655Z,0
2023-05-21T02:06:41.853Z,0
2023-05-21T02:07:11.930Z,0
2023-05-21T02:07:34.363Z,0
2023-05-21T02:08:00.611Z,0
2023-05-21T02:08:31.816Z,0
2023-05-21T02:09:03.962Z,0
2023-05-21T02:09:34.356Z,0
2023-05-21T02:09:51.709Z,0
2023-05-21T02:10:24.785Z,0
2023-05-21T02:10:41.756Z,0
2023-05-21T02:11:11.834Z,0
2023-05-21T02:11:34.378Z,0
2023-05-21T02:12:00.694Z,0
2023-05-21T02:12:31.784Z,0
2023-05-21T02:13:03.753Z,0
2023-05-21T02:13:34.851Z,0
2023-05-21T02:13:51.886Z,0
2023-05-21T02:14:24.581Z,0
2023-05-21T02:14:41.723Z,0
2023-05-21T02:15:12.653Z,0
2023-05-21T02:15:35.304Z,0
2023-05-21T02:16:00.694Z,0
2023-05-21T02:16:34.472Z,0
2023-05-21T02:17:03.766Z,0
2023-05-21T02:17:34.529Z,0
2023-05-21T02:17:51.759Z,0
2023-05-21T02:18:24.417Z,0
2023-05-21T02:18:41.648Z,0
2023-05-21T02:19:11.932Z,0
2023-05-21T02:19:34.578Z,0
2023-05-21T02:19:59.795Z,0
2023-05-21T02:20:33.315Z,0
2023-05-21T02:21:03.678Z,0
2023-05-21T02:21:34.496Z,0
2023-05-21T02:21:52.777Z,0
2023-05-21T02:22:23.820Z,0
2023-05-21T02:22:40.978Z,0
2023-05-21T02:23:12.857Z,0
2023-05-21T02:23:34.388Z,0
2023-05-21T02:23:59.755Z,0
2023-05-21T02:24:32.448Z,0
2023-05-21T02:25:03.867Z,0
2023-05-21T02:25:34.624Z,0
2023-05-21T02:25:52.997Z,0
2023-05-21T02:26:23.854Z,0
2023-05-21T02:26:40.855Z,0
2023-05-21T02:27:12.638Z,0
2023-05-21T02:27:34.355Z,0
2023-05-21T02:27:59.786Z,1.44
2023-05-21T02:28:31.770Z,0
2023-05-21T02:29:03.701Z,0
2023-05-21T02:29:34.375Z,0
2023-05-21T02:29:51.690Z,1.44
2023-05-21T02:30:24.790Z,0
2023-05-21T02:30:41.692Z,0
2023-05-21T02:31:11.816Z,0
2023-05-21T02:31:34.358Z,0
2023-05-21T02:32:00.548Z,0
2023-05-21T02:32:31.882Z,0
2023-05-21T02:33:04.489Z,0
2023-05-21T02:33:34.691Z,0
2023-05-21T02:34:08.280Z,0
2023-05-21T02:34:34.594Z,0
2023-05-21T02:34:55.755Z,0
2023-05-21T02:35:28.914Z,0
2023-05-21T02:35:59.760Z,0
2023-05-21T02:36:31.725Z,0
2023-05-21T02:37:03.758Z,0
2023-05-21T02:37:34.405Z,0
2023-05-21T02:37:52.723Z,0
2023-05-21T02:38:23.782Z,0
2023-05-21T02:38:40.778Z,0
2023-05-21T02:39:12.901Z,0
2023-05-21T02:39:34.986Z,0
2023-05-21T02:39:59.762Z,0
2023-05-21T02:40:32.742Z,0
2023-05-21T02:41:03.698Z,0
2023-05-21T02:41:34.677Z,0
2023-05-21T02:42:08.751Z,0
2023-05-21T02:42:34.373Z,0
2023-05-21T02:42:55.755Z,0
2023-05-21T02:43:28.620Z,0
2023-05-21T02:43:59.757Z,0
2023-05-21T02:44:31.859Z,0
2023-05-21T02:45:04.368Z,0
2023-05-21T02:45:35.491Z,0
2023-05-21T02:45:52.752Z,0
2023-05-21T02:46:23.938Z,0
2023-05-21T02:46:40.862Z,0
2023-05-21T02:47:12.884Z,0
2023-05-21T02:47:34.498Z,0
2023-05-21T02:47:59.912Z,0
2023-05-21T02:48:32.617Z,0
2023-05-21T02:49:03.726Z,0
2023-05-21T02:49:34.409Z,0
2023-05-21T02:49:52.838Z,0
2023-05-21T02:50:23.884Z,0
2023-05-21T02:50:40.855Z,0
2023-05-21T02:51:12.677Z,0
2023-05-21T02:51:34.577Z,0
2023-05-21T02:51:59.741Z,0
2023-05-21T02:52:32.654Z,0
2023-05-21T02:53:03.755Z,0
2023-05-21T02:53:34.352Z,0
2023-05-21T02:53:52.593Z,0
2023-05-21T02:54:23.769Z,0
2023-05-21T02:54:40.868Z,0
2023-05-21T02:55:12.856Z,0
2023-05-21T02:55:34.566Z,0
2023-05-21T02:55:59.908Z,0
2023-05-21T02:56:32.495Z,0
2023-05-21T02:57:03.671Z,0
2023-05-21T02:57:34.460Z,0
2023-05-21T02:57:52.820Z,0
2023-05-21T02:58:23.814Z,0
2023-05-21T02:58:40.879Z,0
2023-05-21T02:59:12.558Z,0
2023-05-21T02:59:34.399Z,0
2023-05-21T02:59:59.700Z,0
2023-05-21T03:00:32.855Z,0
2023-05-21T03:01:03.746Z,0
2023-05-21T03:01:34.463Z,0
2023-05-21T03:01:52.657Z,0
2023-05-21T03:02:23.976Z,0
2023-05-21T03:02:41.021Z,0
2023-05-21T03:03:12.723Z,0
2023-05-21T03:03:34.564Z,0
2023-05-21T03:03:59.699Z,0
2023-05-21T03:04:32.579Z,0
2023-05-21T03:05:03.958Z,0
2023-05-21T03:05:34.542Z,0
2023-05-21T03:05:52.923Z,0
2023-05-21T03:06:23.853Z,0
2023-05-21T03:06:40.825Z,0
2023-05-21T03:07:12.594Z,0
2023-05-21T03:07:34.681Z,0
2023-05-21T03:07:59.773Z,0
2023-05-21T03:08:32.630Z,0
2023-05-21T03:09:03.697Z,0
2023-05-21T03:09:34.553Z,0
2023-05-21T03:09:52.724Z,0
2023-05-21T03:10:23.966Z,0
2023-05-21T03:10:40.813Z,0
2023-05-21T03:11:12.646Z,0
2023-05-21T03:11:34.367Z,0
2023-05-21T03:11:59.739Z,0
2023-05-21T03:12:32.686Z,0
2023-05-21T03:13:03.731Z,0
2023-05-21T03:13:34.367Z,0
2023-05-21T03:13:52.751Z,0
2023-05-21T03:14:23.876Z,0
2023-05-21T03:14:40.923Z,0
2023-05-21T03:15:13.093Z,0
2023-05-21T03:15:34.528Z,0
2023-05-21T03:15:59.883Z,0
2023-05-21T03:16:32.578Z,0
2023-05-21T03:17:03.831Z,0
2023-05-21T03:17:34.453Z,0
2023-05-21T03:17:52.779Z,0
2023-05-21T03:18:23.796Z,0
2023-05-21T03:18:40.826Z,0
2023-05-21T03:19:11.974Z,0
2023-05-21T03:19:34.363Z,0
2023-05-21T03:20:00.705Z,0
2023-05-21T03:20:31.693Z,0
2023-05-21T03:21:03.699Z,0
2023-05-21T03:21:34.589Z,0
2023-05-21T03:21:51.727Z,0
2023-05-21T03:22:24.647Z,0
2023-05-21T03:22:41.716Z,0
2023-05-21T03:23:13.062Z,0
2023-05-21T03:23:34.347Z,0
2023-05-21T03:24:00.825Z,0
2023-05-21T03:24:31.771Z,0
2023-05-21T03:25:04.170Z,0
2023-05-21T03:25:34.721Z,0
2023-05-21T03:25:51.987Z,0
2023-05-21T03:26:24.414Z,0
2023-05-21T03:26:41.644Z,0
2023-05-21T03:27:11.882Z,0
2023-05-21T03:27:35.372Z,0
2023-05-21T03:27:59.836Z,0
2023-05-21T03:28:32.635Z,0
2023-05-21T03:29:03.722Z,0
2023-05-21T03:29:34.343Z,0
2023-05-21T03:29:52.774Z,0
2023-05-21T03:30:24.011Z,0
2023-05-21T03:30:40.964Z,0
2023-05-21T03:31:12.564Z,0
2023-05-21T03:31:34.958Z,0
2023-05-21T03:31:59.824Z,0
2023-05-21T03:32:31.763Z,0
2023-05-21T03:33:03.868Z,0
2023-05-21T03:33:34.397Z,0
2023-05-21T03:33:51.652Z,0
2023-05-21T03:34:24.458Z,0
2023-05-21T03:34:41.528Z,0
2023-05-21T03:35:11.943Z,0
2023-05-21T03:35:34.622Z,0
2023-05-21T03:36:00.623Z,0
2023-05-21T03:36:31.775Z,0
2023-05-21T03:37:03.720Z,0
2023-05-21T03:37:34.442Z,0
2023-05-21T03:37:51.692Z,0
2023-05-21T03:38:24.567Z,0
2023-05-21T03:38:41.964Z,0
2023-05-21T03:39:11.842Z,0
2023-05-21T03:39:34.804Z,0
2023-05-21T03:40:01.054Z,0
2023-05-21T03:40:31.726Z,0
2023-05-21T03:41:03.739Z,0
2023-05-21T03:41:34.398Z,0
2023-05-21T03:41:51.736Z,0
2023-05-21T03:42:24.506Z,0
2023-05-21T03:42:41.639Z,0
2023-05-21T03:43:11.787Z,0
2023-05-21T03:43:34.389Z,0
2023-05-21T03:44:00.714Z,0
2023-05-21T03:44:31.690Z,0
2023-05-21T03:45:03.888Z,0
2023-05-21T03:45:34.573Z,0
2023-05-21T03:45:51.839Z,0
2023-05-21T03:46:24.622Z,0
2023-05-21T03:46:41.720Z,0
2023-05-21T03:47:11.810Z,0
2023-05-21T03:47:34.444Z,0
2023-05-21T03:48:00.821Z,0
2023-05-21T03:48:31.758Z,0
2023-05-21T03:49:03.821Z,0
2023-05-21T03:49:34.701Z,0
2023-05-21T03:50:08.539Z,0
2023-05-21T03:50:34.521Z,0
2023-05-21T03:50:55.911Z,0
2023-05-21T03:51:28.769Z,0
2023-05-21T03:51:59.868Z,0
2023-05-21T03:52:31.877Z,0
2023-05-21T03:53:03.867Z,0
2023-05-21T03:53:34.822Z,0
2023-05-21T03:54:08.686Z,0
2023-05-21T03:54:34.757Z,0
2023-05-21T03:54:55.906Z,0
2023-05-21T03:55:28.040Z,0
2023-05-21T03:56:00.017Z,0
2023-05-21T03:56:31.840Z,0
2023-05-21T03:57:03.819Z,0
2023-05-21T03:57:34.523Z,0
2023-05-21T03:57:51.919Z,0
2023-05-21T03:58:24.548Z,0
2023-05-21T03:58:41.762Z,0
2023-05-21T03:59:12.042Z,0
2023-05-21T03:59:34.598Z,0
2023-05-21T04:00:02.266Z,0
2023-05-21T04:00:31.945Z,0
2023-05-21T04:01:03.845Z,0
2023-05-21T04:01:34.573Z,0
2023-05-21T04:01:52.256Z,0
2023-05-21T04:02:24.893Z,0
2023-05-21T04:02:41.963Z,0
2023-05-21T04:03:12.006Z,0
2023-05-21T04:03:34.644Z,0
2023-05-21T04:04:00.131Z,0
2023-05-21T04:04:32.846Z,0
2023-05-21T04:05:04.145Z,0
2023-05-21T04:05:37.305Z,0
2023-05-21T04:06:07.830Z,0
2023-05-21T04:06:34.527Z,0
2023-05-21T04:06:55.879Z,0
2023-05-21T04:07:27.866Z,0
2023-05-21T04:08:00.889Z,0
2023-05-21T04:08:31.922Z,0
2023-05-21T04:09:03.816Z,0
2023-05-21T04:09:36.690Z,0
2023-05-21T04:09:52.069Z,0
2023-05-21T04:10:25.270Z,0
2023-05-21T04:10:41.822Z,0
2023-05-21T04:11:11.959Z,0
2023-05-21T04:11:34.554Z,0
2023-05-21T04:12:00.917Z,0
2023-05-21T04:12:31.872Z,0
2023-05-21T04:13:03.856Z,0
2023-05-21T04:13:34.547Z,0
2023-05-21T04:13:51.809Z,0
2023-05-21T04:14:24.795Z,0
2023-05-21T04:14:41.825Z,0
2023-05-21T04:15:12.325Z,0
2023-05-21T04:15:34.663Z,0
2023-05-21T04:16:00.227Z,0
2023-05-21T04:16:32.993Z,0
2023-05-21T04:17:03.830Z,0
2023-05-21T04:17:35.699Z,0
2023-05-21T04:18:07.884Z,0
2023-05-21T04:18:34.611Z,0
2023-05-21T04:18:55.937Z,0
2023-05-21T04:19:28.351Z,0
2023-05-21T04:20:00.966Z,0
2023-05-21T04:20:32.021Z,0
2023-05-21T04:21:03.905Z,0
2023-05-21T04:21:34.598Z,0
2023-05-21T04:21:51.798Z,0
2023-05-21T04:22:24.815Z,0
2023-05-21T04:22:41.778Z,0
2023-05-21T04:23:11.835Z,0
2023-05-21T04:23:34.534Z,0
2023-05-21T04:23:59.996Z,0
2023-05-21T04:24:32.762Z,0
2023-05-21T04:25:04.148Z,0
2023-05-21T04:25:34.964Z,0
2023-05-21T04:26:08.669Z,0
2023-05-21T04:26:34.540Z,0
2023-05-21T04:26:55.914Z,0
2023-05-21T04:27:27.789Z,0
2023-05-21T04:28:00.668Z,0
2023-05-21T04:28:31.834Z,0
2023-05-21T04:29:03.874Z,0
2023-05-21T04:29:34.581Z,0
2023-05-21T04:29:51.909Z,0
2023-05-21T04:30:24.773Z,0
2023-05-21T04:30:41.698Z,0
2023-05-21T04:31:12.028Z,0
2023-05-21T04:31:34.659Z,0
2023-05-21T04:32:00.764Z,0
2023-05-21T04:32:31.892Z,0
2023-05-21T04:33:04.154Z,0
2023-05-21T04:33:35.135Z,0
2023-05-21T04:34:08.280Z,0
2023-05-21T04:34:35.386Z,0
2023-05-21T04:34:55.942Z,0
2023-05-21T04:35:28.955Z,0
2023-05-21T04:35:59.869Z,0
2023-05-21T04:36:33.090Z,0
2023-05-21T04:37:03.811Z,0
2023-05-21T04:37:34.547Z,0
2023-05-21T04:37:52.729Z,0
2023-05-21T04:38:23.945Z,0
2023-05-21T04:38:40.989Z,0
2023-05-21T04:39:11.978Z,0
2023-05-21T04:39:34.649Z,0
2023-05-21T04:40:01.346Z,0
2023-05-21T04:40:31.872Z,0
2023-05-21T04:41:04.657Z,0
2023-05-21T04:41:34.563Z,0
2023-05-21T04:41:51.969Z,0
2023-05-21T04:42:24.027Z,0
2023-05-21T04:42:40.937Z,0
2023-05-21T04:43:12.816Z,0
2023-05-21T04:43:34.804Z,0
2023-05-21T04:44:00.331Z,0
2023-05-21T04:44:32.809Z,0
2023-05-21T04:45:04.188Z,0
2023-05-21T04:45:35.411Z,0
2023-05-21T04:45:53.257Z,0
2023-05-21T04:46:24.007Z,0
2023-05-21T04:46:41.902Z,0
2023-05-21T04:47:11.955Z,0
2023-05-21T04:47:34.675Z,0
2023-05-21T04:48:01.177Z,0
2023-05-21T04:48:32.006Z,0
2023-05-21T04:49:03.875Z,0
2023-05-21T04:49:34.535Z,0
2023-05-21T04:49:51.838Z,0
2023-05-21T04:50:24.944Z,0
2023-05-21T04:50:42.971Z,0
2023-05-21T04:51:12.020Z,0
2023-05-21T04:51:35.063Z,0
2023-05-21T04:51:59.854Z,0
2023-05-21T04:52:32.783Z,0
2023-05-21T04:53:03.910Z,0
2023-05-21T04:53:35.357Z,0
2023-05-21T04:53:51.915Z,0
2023-05-21T04:54:23.901Z,0
2023-05-21T04:54:42.138Z,0
2023-05-21T04:55:12.182Z,0
2023-05-21T04:55:34.706Z,0
2023-05-21T04:56:01.435Z,0
2023-05-21T04:56:32.079Z,0
2023-05-21T04:57:03.745Z,0
2023-05-21T04:57:34.582Z,0
2023-05-21T04:57:51.864Z,0
2023-05-21T04:58:24.661Z,0
2023-05-21T04:58:41.819Z,0
2023-05-21T04:59:12.064Z,0
2023-05-21T04:59:34.524Z,0
2023-05-21T04:59:59.903Z,0
2023-05-21T05:00:32.945Z,0
2023-05-21T05:01:04.041Z,1.44
2023-05-21T05:01:35.158Z,2.09
2023-05-21T05:02:08.840Z,0
2023-05-21T05:02:34.631Z,0
2023-05-21T05:02:56.094Z,0
2023-05-21T05:03:29.043Z,1.44
2023-05-21T05:04:15.957Z,1.12
2023-05-21T05:04:35.521Z,1.77
2023-05-21T05:05:04.116Z,0
2023-05-21T05:05:35.575Z,0
2023-05-21T05:05:52.030Z,.64
2023-05-21T05:06:24.011Z,0
2023-05-21T05:06:41.843Z,0
2023-05-21T05:07:12.030Z,0
2023-05-21T05:07:34.583Z,.32
2023-05-21T05:08:00.736Z,1.44
2023-05-21T05:08:31.830Z,3.54
2023-05-21T05:09:04.651Z,1.44
2023-05-21T05:09:34.539Z,1.44
2023-05-21T05:09:51.865Z,2.09
2023-05-21T05:10:24.132Z,1.44
2023-05-21T05:10:41.174Z,0
2023-05-21T05:11:12.826Z,0
2023-05-21T05:11:34.590Z,.32
2023-05-21T05:11:59.802Z,0
2023-05-21T05:12:31.997Z,0
2023-05-21T05:13:03.844Z,0
2023-05-21T05:13:34.594Z,0
2023-05-21T05:13:51.825Z,0
2023-05-21T05:14:24.721Z,2.09
2023-05-21T05:14:41.826Z,.64
2023-05-21T05:15:12.112Z,0
2023-05-21T05:15:34.646Z,.32
2023-05-21T05:16:00.902Z,0
2023-05-21T05:16:31.844Z,0
2023-05-21T05:17:03.899Z,1.44
2023-05-21T05:17:35.296Z,1.77
2023-05-21T05:17:51.868Z,1.77
2023-05-21T05:18:24.729Z,2.09
2023-05-21T05:18:41.866Z,1.77
2023-05-21T05:19:11.993Z,1.44
2023-05-21T05:19:34.871Z,1.12
2023-05-21T05:20:00.994Z,.32
2023-05-21T05:20:31.967Z,1.12
2023-05-21T05:21:03.800Z,1.77
2023-05-21T05:21:34.572Z,1.77
2023-05-21T05:21:51.824Z,.32
2023-05-21T05:22:24.846Z,.32
2023-05-21T05:22:41.996Z,.32
2023-05-21T05:23:11.935Z,.32
2023-05-21T05:23:34.638Z,0
2023-05-21T05:24:00.252Z,.32
2023-05-21T05:24:32.714Z,2.89
2023-05-21T05:25:04.660Z,.32
2023-05-21T05:25:35.778Z,.32
2023-05-21T05:26:23.870Z,0
2023-05-21T05:26:41.756Z,1.44
2023-05-21T05:27:11.847Z,1.12
2023-05-21T05:27:35.482Z,0
2023-05-21T05:27:59.842Z,0
2023-05-21T05:28:31.848Z,0
2023-05-21T05:29:04.575Z,.32
2023-05-21T05:29:34.519Z,0
2023-05-21T05:30:09.096Z,.32
2023-05-21T05:30:34.623Z,1.12
2023-05-21T05:30:56.440Z,0
2023-05-21T05:31:28.879Z,0
2023-05-21T05:32:00.026Z,0
2023-05-21T05:32:31.788Z,1.12
2023-05-21T05:33:04.148Z,0
2023-05-21T05:33:34.804Z,0
2023-05-21T05:33:53.094Z,0
2023-05-21T05:34:23.999Z,0
2023-05-21T05:34:41.065Z,1.12
2023-05-21T05:35:13.994Z,0
2023-05-21T05:35:34.825Z,.64
2023-05-21T05:36:00.155Z,.32
2023-05-21T05:36:33.538Z,.32
2023-05-21T05:37:03.850Z,0
2023-05-21T05:37:34.605Z,0
2023-05-21T05:37:52.770Z,0
2023-05-21T05:38:23.918Z,0
2023-05-21T05:38:41.090Z,0
2023-05-21T05:39:13.522Z,2.09
2023-05-21T05:39:35.185Z,2.89
2023-05-21T05:39:59.852Z,2.09
2023-05-21T05:40:32.026Z,1.44
2023-05-21T05:41:04.008Z,1.12
2023-05-21T05:41:34.589Z,.64
2023-05-21T05:41:51.819Z,1.77
2023-05-21T05:42:24.769Z,1.12
2023-05-21T05:42:42.268Z,1.44
2023-05-21T05:43:11.886Z,.32
2023-05-21T05:43:34.524Z,1.77
2023-05-21T05:43:59.861Z,.32
2023-05-21T05:44:31.926Z,0
2023-05-21T05:45:04.089Z,0
2023-05-21T05:45:34.681Z,0
2023-05-21T05:45:51.978Z,1.44
2023-05-21T05:46:24.714Z,.32
2023-05-21T05:46:41.788Z,1.44
2023-05-21T05:47:11.897Z,1.44
2023-05-21T05:47:34.656Z,1.12
2023-05-21T05:48:01.061Z,1.12
2023-05-21T05:48:31.918Z,0
2023-05-21T05:49:04.495Z,0
2023-05-21T05:49:34.567Z,0
2023-05-21T05:49:51.801Z,0
2023-05-21T05:50:24.100Z,0
2023-05-21T05:50:40.936Z,.64
2023-05-21T05:51:12.813Z,0
2023-05-21T05:51:34.558Z,0
2023-05-21T05:51:59.946Z,0
2023-05-21T05:52:31.930Z,0
2023-05-21T05:53:03.751Z,1.77
2023-05-21T05:53:34.549Z,.64
2023-05-21T05:53:51.818Z,2.57
2023-05-21T05:54:25.513Z,1.44
2023-05-21T05:54:55.813Z,0
2023-05-21T05:55:28.407Z,0
2023-05-21T05:56:00.057Z,1.44
2023-05-21T05:56:32.058Z,.32
2023-05-21T05:57:03.936Z,0
2023-05-21T05:57:34.580Z,0
2023-05-21T05:57:52.728Z,0
2023-05-21T05:58:23.862Z,0
2023-05-21T05:58:41.028Z,0
2023-05-21T05:59:12.867Z,0
2023-05-21T05:59:34.576Z,0
2023-05-21T06:00:00.043Z,0
2023-05-21T06:00:32.457Z,0
2023-05-21T06:01:03.884Z,0
2023-05-21T06:01:34.576Z,0
2023-05-21T06:01:51.889Z,0
2023-05-21T06:02:24.906Z,0
2023-05-21T06:02:41.975Z,0
2023-05-21T06:03:12.497Z,0
2023-05-21T06:03:34.778Z,0
2023-05-21T06:04:00.830Z,1.77
2023-05-21T06:04:32.064Z,0
2023-05-21T06:05:04.177Z,2.09
2023-05-21T06:05:34.754Z,3.54
2023-05-21T06:05:52.112Z,1.44
2023-05-21T06:06:24.772Z,2.89
2023-05-21T06:06:41.795Z,1.44
2023-05-21T06:07:11.962Z,1.44
2023-05-21T06:07:34.636Z,1.77
2023-05-21T06:07:59.929Z,1.77
2023-05-21T06:08:32.846Z,1.12
2023-05-21T06:09:03.881Z,1.44
2023-05-21T06:09:34.675Z,1.12
2023-05-21T06:09:52.808Z,.64
2023-05-21T06:10:24.166Z,0
2023-05-21T06:10:40.917Z,0
2023-05-21T06:11:11.905Z,0
2023-05-21T06:11:34.626Z,0
2023-05-21T06:12:00.811Z,0
2023-05-21T06:12:31.934Z,2.09
2023-05-21T06:13:04.089Z,2.09
2023-05-21T06:13:34.751Z,1.44
2023-05-21T06:13:52.045Z,2.57
2023-05-21T06:14:24.985Z,1.44
2023-05-21T06:14:43.792Z,.64
2023-05-21T06:15:12.492Z,.32
2023-05-21T06:15:34.974Z,0
2023-05-21T06:16:01.101Z,0
2023-05-21T06:16:32.153Z,1.12
2023-05-21T06:17:03.980Z,0
2023-05-21T06:17:34.809Z,0
2023-05-21T06:17:52.142Z,.32
2023-05-21T06:18:24.868Z,.32
2023-05-21T06:18:41.970Z,0
2023-05-21T06:19:12.142Z,2.89
2023-05-21T06:19:34.814Z,2.89
2023-05-21T06:20:00.444Z,.32
2023-05-21T06:20:36.539Z,.64
2023-05-21T06:21:19.983Z,0
2023-05-21T06:21:37.111Z,0
2023-05-21T06:22:09.050Z,0
2023-05-21T06:22:35.222Z,0
2023-05-21T06:22:56.067Z,1.44
2023-05-21T06:23:35.314Z,2.09
2023-05-21T06:24:00.099Z,3.54
2023-05-21T06:24:32.177Z,3.54
2023-05-21T06:25:04.330Z,.32
2023-05-21T06:25:35.082Z,1.12
2023-05-21T06:25:52.152Z,2.09
2023-05-21T06:26:24.778Z,1.12
2023-05-21T06:26:42.119Z,0
2023-05-21T06:27:12.201Z,.32
2023-05-21T06:27:34.860Z,2.09
2023-05-21T06:28:00.117Z,0
2023-05-21T06:28:32.804Z,.32
2023-05-21T06:29:04.080Z,0
2023-05-21T06:29:34.875Z,0
2023-05-21T06:29:53.022Z,4.02
2023-05-21T06:30:24.847Z,3.54
2023-05-21T06:30:41.100Z,2.09
2023-05-21T06:31:13.842Z,.32
2023-05-21T06:31:34.807Z,1.12
2023-05-21T06:32:00.108Z,0
2023-05-21T06:32:33.131Z,0
2023-05-21T06:33:04.439Z,2.09
2023-05-21T06:33:34.953Z,2.09
2023-05-21T06:33:54.096Z,.32
2023-05-21T06:34:23.958Z,2.89
2023-05-21T06:34:41.030Z,3.54
2023-05-21T06:35:12.377Z,1.12
2023-05-21T06:35:34.759Z,0
2023-05-21T06:36:01.331Z,0
2023-05-21T06:36:32.641Z,2.09